createdAt,value
2018-08-12T00:01:41.104Z,4.30
2018-08-12T00:04:09.748Z,4.87
2018-08-12T00:06:38.421Z,2.40
2018-08-12T00:09:09.845Z,3.40
2018-08-12T00:11:38.810Z,2.33
2018-08-12T00:14:07.683Z,2.43
2018-08-12T00:16:36.922Z,3.40
2018-08-12T00:19:06.233Z,6.57
2018-08-12T00:21:35.124Z,2.97
2018-08-12T00:24:03.841Z,3.53
2018-08-12T00:26:32.574Z,3.43
2018-08-12T00:29:01.539Z,4.83
2018-08-12T00:31:30.231Z,6.00
2018-08-12T00:33:59.916Z,4.70
2018-08-12T00:36:28.719Z,2.70
2018-08-12T00:38:57.381Z,2.40
2018-08-12T00:41:26.396Z,3.60
2018-08-12T00:43:58.707Z,3.43
2018-08-12T00:46:27.648Z,3.17
2018-08-12T00:48:56.391Z,3.10
2018-08-12T00:51:25.126Z,2.43
2018-08-12T00:53:54.099Z,3.13
2018-08-12T00:56:22.962Z,4.50
2018-08-12T00:58:51.761Z,5.63
2018-08-12T01:01:20.669Z,3.27
2018-08-12T01:03:49.516Z,2.80
2018-08-12T01:06:18.322Z,3.97
2018-08-12T01:08:47.190Z,2.50
2018-08-12T01:11:16.194Z,2.37
2018-08-12T01:13:45.172Z,4.57
2018-08-12T01:16:14.380Z,3.93
2018-08-12T01:18:43.626Z,2.73
2018-08-12T01:21:12.710Z,2.37
2018-08-12T01:23:42.627Z,3.37
2018-08-12T01:26:11.549Z,5.40
2018-08-12T01:28:40.664Z,5.53
2018-08-12T01:31:10.129Z,3.17
2018-08-12T01:33:39.074Z,3.57
2018-08-12T01:36:08.189Z,3.33
2018-08-12T01:38:37.751Z,6.93
2018-08-12T01:41:07.011Z,4.50
2018-08-12T01:43:36.991Z,5.43
2018-08-12T01:46:06.346Z,3.60
2018-08-12T01:48:35.470Z,4.73
2018-08-12T01:51:04.285Z,2.87
2018-08-12T01:53:33.101Z,6.10
2018-08-12T01:56:02.253Z,3.33
2018-08-12T01:58:31.344Z,5.53
2018-08-12T02:01:01.020Z,2.83
2018-08-12T02:03:30.371Z,3.80
2018-08-12T02:05:59.284Z,2.60
2018-08-12T02:08:28.240Z,3.90
2018-08-12T02:10:57.376Z,2.53
2018-08-12T02:13:26.275Z,4.17
2018-08-12T02:15:55.148Z,2.33
2018-08-12T02:18:24.312Z,2.83
2018-08-12T02:20:53.404Z,4.13
2018-08-12T02:23:22.049Z,2.00
2018-08-12T02:25:51.771Z,2.90
2018-08-12T02:28:21.020Z,3.83
2018-08-12T02:30:50.264Z,6.43
2018-08-12T02:33:19.291Z,3.23
2018-08-12T02:35:48.480Z,4.10
2018-08-12T02:38:17.359Z,7.73
2018-08-12T02:40:46.335Z,2.80
2018-08-12T02:43:15.192Z,3.80
2018-08-12T02:45:44.884Z,7.23
2018-08-12T02:48:13.909Z,3.53
2018-08-12T02:50:43.415Z,2.83
2018-08-12T02:53:12.355Z,3.33
2018-08-12T02:55:42.101Z,3.87
2018-08-12T02:58:11.236Z,4.43
2018-08-12T03:00:40.505Z,3.33
2018-08-12T03:03:09.359Z,4.10
2018-08-12T03:05:38.468Z,3.00
2018-08-12T03:08:07.502Z,6.30
2018-08-12T03:10:37.385Z,3.80
2018-08-12T03:13:06.663Z,15.70
2018-08-12T03:15:35.585Z,2.73
2018-08-12T03:18:04.495Z,2.13
2018-08-12T03:20:33.378Z,3.13
2018-08-12T03:23:02.446Z,8.23
2018-08-12T03:25:31.371Z,2.17
2018-08-12T03:28:00.178Z,2.90
2018-08-12T03:30:29.831Z,3.40
2018-08-12T03:32:58.731Z,2.93
2018-08-12T03:35:28.142Z,3.57
2018-08-12T03:37:57.140Z,5.20
2018-08-12T03:40:26.345Z,3.80
2018-08-12T03:42:55.540Z,3.90
2018-08-12T03:45:24.285Z,2.63
2018-08-12T03:47:53.872Z,5.00
2018-08-12T03:50:22.949Z,5.97
2018-08-12T03:52:51.856Z,5.00
2018-08-12T03:55:20.932Z,3.43
2018-08-12T03:57:50.329Z,2.70
2018-08-12T04:00:19.884Z,2.93
2018-08-12T04:02:49.651Z,2.43
2018-08-12T04:05:22.467Z,2.47
2018-08-12T04:07:51.908Z,2.20
2018-08-12T04:10:20.766Z,2.87
2018-08-12T04:12:49.762Z,2.90
2018-08-12T04:15:18.798Z,2.80
2018-08-12T04:17:47.796Z,2.80
2018-08-12T04:20:17.310Z,3.20
2018-08-12T04:22:47.350Z,4.50
2018-08-12T04:25:16.562Z,2.13
2018-08-12T04:27:45.514Z,2.10
2018-08-12T04:30:14.563Z,3.17
2018-08-12T04:32:46.400Z,5.90
2018-08-12T04:35:15.431Z,2.70
2018-08-12T04:37:44.704Z,3.00
2018-08-12T04:40:13.637Z,4.30
2018-08-12T04:42:42.927Z,2.83
2018-08-12T04:45:12.310Z,4.63
2018-08-12T04:47:41.545Z,3.73
2018-08-12T04:50:10.548Z,8.60
2018-08-12T04:52:39.694Z,4.93
2018-08-12T04:55:08.994Z,13.10
2018-08-12T04:57:38.411Z,7.30
2018-08-12T05:00:08.230Z,18.50
2018-08-12T05:02:37.341Z,13.50
2018-08-12T05:05:07.539Z,3.17
2018-08-12T05:07:36.923Z,5.00
2018-08-12T05:10:06.894Z,8.30
2018-08-12T05:12:36.562Z,5.20
2018-08-12T05:15:07.464Z,5.00
2018-08-12T05:17:36.510Z,5.10
2018-08-12T05:20:05.926Z,15.80
2018-08-12T05:22:35.765Z,3.93
2018-08-12T05:25:05.347Z,4.27
2018-08-12T05:27:34.275Z,2.80
2018-08-12T05:30:03.551Z,5.13
2018-08-12T05:32:32.267Z,5.80
2018-08-12T05:35:01.273Z,10.70
2018-08-12T05:37:30.063Z,7.13
2018-08-12T05:39:58.820Z,8.53
2018-08-12T05:42:27.854Z,6.73
2018-08-12T05:44:56.891Z,5.47
2018-08-12T05:47:26.772Z,3.40
2018-08-12T05:50:01.901Z,8.13
2018-08-12T05:52:30.894Z,8.30
2018-08-12T05:54:59.986Z,6.67
2018-08-12T05:57:29.003Z,7.53
2018-08-12T05:59:57.998Z,6.30
2018-08-12T06:02:26.920Z,6.40
2018-08-12T06:04:56.358Z,3.83
2018-08-12T06:07:25.502Z,3.23
2018-08-12T06:09:54.455Z,4.17
2018-08-12T06:12:23.506Z,4.80
2018-08-12T06:14:52.999Z,12.20
2018-08-12T06:17:21.989Z,5.63
2018-08-12T06:19:50.840Z,5.40
2018-08-12T06:22:19.811Z,3.37
2018-08-12T06:24:48.547Z,5.90
2018-08-12T06:27:17.322Z,5.50
2018-08-12T06:29:46.337Z,5.53
2018-08-12T06:32:15.429Z,5.77
2018-08-12T06:34:44.158Z,4.33
2018-08-12T06:37:13.417Z,4.40
2018-08-12T06:39:42.525Z,6.17
2018-08-12T06:42:11.800Z,3.87
2018-08-12T06:44:40.786Z,3.90
2018-08-12T06:47:09.802Z,5.83
2018-08-12T06:49:38.610Z,4.83
2018-08-12T06:52:07.462Z,27.57
2018-08-12T06:54:37.013Z,4.23
2018-08-12T06:57:06.079Z,6.60
2018-08-12T06:59:35.056Z,3.30
2018-08-12T07:02:05.094Z,3.30
2018-08-12T07:04:34.137Z,10.40
2018-08-12T07:07:03.259Z,4.50
2018-08-12T07:09:32.205Z,4.93
2018-08-12T07:12:01.237Z,5.27
2018-08-12T07:14:30.205Z,4.60
2018-08-12T07:16:59.204Z,7.00
2018-08-12T07:19:28.144Z,3.73
2018-08-12T07:21:57.311Z,4.73
2018-08-12T07:24:26.924Z,7.77
2018-08-12T07:26:56.097Z,26.20
2018-08-12T07:29:25.302Z,5.70
2018-08-12T07:31:54.165Z,2.70
2018-08-12T07:34:24.325Z,2.80
2018-08-12T07:36:53.265Z,2.53
2018-08-12T07:39:22.265Z,6.30
2018-08-12T07:41:51.167Z,3.40
2018-08-12T07:44:20.205Z,7.13
2018-08-12T07:46:49.289Z,3.40
2018-08-12T07:49:18.143Z,5.23
2018-08-12T07:51:47.050Z,3.33
2018-08-12T07:54:15.872Z,21.50
2018-08-12T07:56:44.836Z,24.17
2018-08-12T07:59:14.681Z,12.73
2018-08-12T08:01:44.249Z,14.33
2018-08-12T08:04:13.332Z,6.50
2018-08-12T08:06:42.343Z,11.73
2018-08-12T08:09:12.373Z,3.27
2018-08-12T08:11:41.966Z,7.00
2018-08-12T08:14:11.400Z,15.37
2018-08-12T08:16:40.356Z,3.30
2018-08-12T08:19:09.283Z,3.20
2018-08-12T08:21:38.517Z,2.77
2018-08-12T08:24:07.581Z,2.70
2018-08-12T08:26:36.937Z,1.83
2018-08-12T08:29:06.401Z,6.43
2018-08-12T08:31:35.494Z,7.80
2018-08-12T08:34:05.566Z,2.40
2018-08-12T08:36:34.325Z,4.37
2018-08-12T08:39:03.533Z,4.53
2018-08-12T08:41:32.771Z,2.00
2018-08-12T08:44:01.635Z,4.07
2018-08-12T08:46:30.614Z,5.17
2018-08-12T08:48:59.958Z,2.27
2018-08-12T08:51:28.788Z,8.70
2018-08-12T08:53:57.884Z,7.73
2018-08-12T08:56:26.848Z,5.93
2018-08-12T08:58:55.708Z,6.00
2018-08-12T09:01:24.700Z,23.47
2018-08-12T09:03:53.660Z,15.43
2018-08-12T09:06:22.923Z,41.33
2018-08-12T09:08:52.176Z,39.90
2018-08-12T09:11:20.763Z,5.73
2018-08-12T09:13:49.860Z,2.33
2018-08-12T09:16:19.067Z,69.17
2018-08-12T09:18:47.882Z,49.03
2018-08-12T09:21:16.701Z,46.77
2018-08-12T09:23:45.690Z,52.67
2018-08-12T09:26:15.085Z,17.80
2018-08-12T09:28:44.467Z,11.60
2018-08-12T09:31:13.421Z,12.83
2018-08-12T09:33:42.367Z,26.77
2018-08-12T09:36:11.797Z,10.23
2018-08-12T09:38:41.372Z,14.20
2018-08-12T09:41:10.211Z,6.50
2018-08-12T09:43:39.100Z,6.77
2018-08-12T09:46:08.235Z,7.40
2018-08-12T09:48:37.582Z,13.30
2018-08-12T09:51:06.580Z,8.23
2018-08-12T09:53:36.733Z,10.53
2018-08-12T09:56:05.942Z,6.60
2018-08-12T09:58:34.992Z,2.27
2018-08-12T10:01:04.159Z,10.93
2018-08-12T10:03:33.410Z,4.27
2018-08-12T10:06:02.299Z,4.10
2018-08-12T10:08:31.497Z,3.50
2018-08-12T10:11:00.591Z,2.20
2018-08-12T10:13:29.699Z,5.47
2018-08-12T10:15:58.700Z,2.90
2018-08-12T10:18:27.676Z,4.80
2018-08-12T10:20:56.692Z,2.03
2018-08-12T10:23:25.650Z,1.50
2018-08-12T10:25:54.569Z,3.47
2018-08-12T10:28:23.511Z,2.90
2018-08-12T10:30:52.599Z,1.77
2018-08-12T10:33:21.589Z,2.87
2018-08-12T10:35:50.723Z,3.20
2018-08-12T10:38:19.714Z,1.83
2018-08-12T10:40:48.739Z,2.27
2018-08-12T10:43:17.661Z,2.50
2018-08-12T10:45:46.761Z,2.63
2018-08-12T10:48:15.722Z,5.13
2018-08-12T10:50:44.444Z,2.60
2018-08-12T10:53:13.429Z,2.60
2018-08-12T10:55:42.369Z,2.30
2018-08-12T10:58:11.291Z,2.67
2018-08-12T11:00:40.332Z,1.53
2018-08-12T11:03:09.387Z,1.30
2018-08-12T11:05:38.572Z,3.80
2018-08-12T11:08:07.601Z,2.83
2018-08-12T11:10:36.692Z,2.23
2018-08-12T11:13:05.572Z,2.27
2018-08-12T11:15:35.947Z,5.73
2018-08-12T11:18:04.957Z,3.30
2018-08-12T11:20:34.082Z,2.70
2018-08-12T11:23:03.182Z,0.93
2018-08-12T11:25:31.985Z,2.10
2018-08-12T11:28:01.024Z,1.30
2018-08-12T11:30:30.689Z,2.07
2018-08-12T11:33:00.282Z,1.33
2018-08-12T11:35:29.307Z,2.30
2018-08-12T11:37:58.649Z,1.60
2018-08-12T11:40:33.597Z,1.67
2018-08-12T11:43:02.442Z,1.70
2018-08-12T11:45:31.216Z,1.13
2018-08-12T11:47:59.771Z,5.30
2018-08-12T11:50:28.680Z,2.97
2018-08-12T11:52:57.622Z,2.60
2018-08-12T11:55:26.185Z,1.50
2018-08-12T11:57:55.447Z,1.23
2018-08-12T12:00:24.476Z,2.07
2018-08-12T12:02:53.667Z,1.73
2018-08-12T12:05:22.865Z,2.17
2018-08-12T12:07:51.993Z,2.73
2018-08-12T12:10:22.399Z,1.70
2018-08-12T12:12:52.113Z,1.73
2018-08-12T12:15:21.110Z,1.30
2018-08-12T12:17:50.133Z,1.83
2018-08-12T12:20:19.879Z,1.83
2018-08-12T12:22:49.115Z,1.60
2018-08-12T12:25:19.490Z,1.77
2018-08-12T12:27:48.535Z,1.10
2018-08-12T12:30:18.876Z,2.50
2018-08-12T12:32:48.733Z,1.33
2018-08-12T12:35:17.824Z,1.53
2018-08-12T12:37:46.795Z,1.53
2018-08-12T12:40:17.542Z,2.20
2018-08-12T12:42:46.932Z,1.30
2018-08-12T12:45:16.584Z,1.00
2018-08-12T12:47:46.751Z,2.30
2018-08-12T12:50:17.307Z,1.23
2018-08-12T12:52:47.110Z,1.20
2018-08-12T12:55:15.954Z,1.10
2018-08-12T12:57:44.918Z,1.47
2018-08-12T13:00:15.174Z,1.50
2018-08-12T13:02:44.938Z,1.33
2018-08-12T13:05:15.403Z,1.30
2018-08-12T13:07:45.842Z,1.10
2018-08-12T13:10:15.595Z,1.20
2018-08-12T13:12:44.566Z,2.13
2018-08-12T13:15:14.257Z,1.10
2018-08-12T13:17:43.870Z,1.10
2018-08-12T13:20:15.995Z,1.00
2018-08-12T13:22:46.455Z,1.17
2018-08-12T13:25:17.559Z,1.00
2018-08-12T13:27:46.637Z,1.07
2018-08-12T13:30:16.528Z,7.47
2018-08-12T13:32:46.697Z,3.50
2018-08-12T13:35:15.507Z,1.30
2018-08-12T13:37:44.787Z,1.10
2018-08-12T13:40:15.004Z,1.13
2018-08-12T13:42:44.823Z,0.97
2018-08-12T13:45:14.455Z,1.00
2018-08-12T13:47:44.982Z,1.40
2018-08-12T13:50:19.686Z,1.27
2018-08-12T13:52:49.714Z,1.30
2018-08-12T13:55:19.263Z,1.20
2018-08-12T13:57:49.125Z,1.27
2018-08-12T14:00:22.421Z,1.83
2018-08-12T14:02:51.481Z,1.00
2018-08-12T14:05:21.024Z,1.30
2018-08-12T14:07:50.495Z,1.37
2018-08-12T14:10:19.518Z,1.30
2018-08-12T14:12:48.223Z,1.10
2018-08-12T14:15:18.343Z,1.33
2018-08-12T14:17:48.216Z,1.40
2018-08-12T14:20:18.641Z,1.00
2018-08-12T14:22:47.432Z,2.40
2018-08-12T14:25:16.470Z,1.03
2018-08-12T14:27:45.731Z,1.00
2018-08-12T14:30:18.120Z,2.60
2018-08-12T14:32:47.629Z,1.30
2018-08-12T14:35:16.796Z,1.00
2018-08-12T14:37:46.419Z,2.07
2018-08-12T14:40:15.718Z,1.47
2018-08-12T14:42:44.858Z,1.13
2018-08-12T14:45:15.332Z,1.10
2018-08-12T14:47:46.084Z,1.00
2018-08-12T14:50:18.297Z,4.93
2018-08-12T14:52:47.232Z,0.90
2018-08-12T14:55:18.221Z,2.00
2018-08-12T14:57:47.220Z,1.60
2018-08-12T15:00:18.278Z,1.20
2018-08-12T15:02:48.427Z,2.53
2018-08-12T15:05:18.034Z,1.93
2018-08-12T15:07:46.988Z,3.07
2018-08-12T15:10:16.039Z,1.10
2018-08-12T15:12:45.184Z,0.90
2018-08-12T15:15:15.515Z,1.07
2018-08-12T15:17:45.261Z,1.03
2018-08-12T15:20:14.648Z,2.10
2018-08-12T15:22:44.073Z,2.57
2018-08-12T15:25:14.997Z,1.10
2018-08-12T15:27:43.897Z,2.10
2018-08-12T15:30:12.664Z,2.20
2018-08-12T15:32:41.744Z,1.50
2018-08-12T15:35:10.964Z,1.77
2018-08-12T15:37:39.915Z,2.07
2018-08-12T15:40:11.151Z,1.23
2018-08-12T15:42:40.011Z,1.30
2018-08-12T15:45:11.212Z,1.10
2018-08-12T15:47:41.880Z,4.37
2018-08-12T15:50:11.720Z,2.10
2018-08-12T15:52:42.198Z,0.90
2018-08-12T15:55:11.167Z,2.50
2018-08-12T15:57:40.802Z,1.40
2018-08-12T16:00:15.107Z,1.40
2018-08-12T16:02:45.043Z,1.30
2018-08-12T16:05:14.703Z,1.10
2018-08-12T16:07:44.418Z,1.30
2018-08-12T16:10:16.944Z,1.20
2018-08-12T16:12:46.565Z,1.10
2018-08-12T16:15:16.425Z,1.23
2018-08-12T16:17:45.584Z,2.30
2018-08-12T16:20:14.456Z,3.57
2018-08-12T16:22:43.452Z,2.50
2018-08-12T16:25:15.044Z,1.53
2018-08-12T16:27:44.284Z,1.77
2018-08-12T16:30:14.793Z,1.17
2018-08-12T16:32:43.721Z,1.50
2018-08-12T16:35:13.956Z,1.30
2018-08-12T16:37:43.558Z,1.20
2018-08-12T16:40:15.124Z,1.50
2018-08-12T16:42:44.250Z,6.10
2018-08-12T16:45:14.482Z,2.20
2018-08-12T16:47:43.404Z,2.33
2018-08-12T16:50:12.411Z,1.23
2018-08-12T16:52:41.599Z,1.30
2018-08-12T16:55:12.209Z,1.40
2018-08-12T16:57:41.227Z,1.47
2018-08-12T17:00:14.182Z,2.30
2018-08-12T17:02:43.266Z,2.03
2018-08-12T17:05:14.153Z,2.13
2018-08-12T17:07:43.266Z,2.83
2018-08-12T17:10:12.929Z,1.30
2018-08-12T17:12:41.750Z,1.40
2018-08-12T17:15:13.126Z,2.80
2018-08-12T17:17:41.896Z,1.83
2018-08-12T17:20:12.866Z,1.20
2018-08-12T17:22:42.449Z,1.20
2018-08-12T17:25:11.223Z,2.20
2018-08-12T17:27:40.078Z,1.40
2018-08-12T17:30:10.409Z,1.20
2018-08-12T17:32:39.364Z,6.73
2018-08-12T17:35:08.898Z,2.00
2018-08-12T17:37:38.147Z,2.17
2018-08-12T17:40:09.241Z,1.70
2018-08-12T17:42:38.636Z,2.37
2018-08-12T17:45:08.846Z,1.70
2018-08-12T17:47:39.180Z,3.10
2018-08-12T17:50:09.319Z,2.40
2018-08-12T17:52:38.283Z,1.57
2018-08-12T17:55:07.542Z,1.60
2018-08-12T17:57:36.504Z,3.20
2018-08-12T18:00:07.419Z,1.80
2018-08-12T18:02:36.145Z,2.50
2018-08-12T18:05:05.224Z,6.50
2018-08-12T18:07:35.353Z,1.77
2018-08-12T18:10:04.764Z,7.33
2018-08-12T18:12:33.780Z,2.67
2018-08-12T18:15:02.788Z,1.63
2018-08-12T18:17:32.507Z,2.30
2018-08-12T18:20:01.439Z,5.63
2018-08-12T18:22:30.177Z,1.50
2018-08-12T18:24:59.151Z,1.93
2018-08-12T18:27:28.348Z,2.53
2018-08-12T18:29:57.230Z,2.33
2018-08-12T18:32:26.591Z,2.17
2018-08-12T18:34:55.521Z,2.50
2018-08-12T18:37:24.958Z,4.27
2018-08-12T18:39:54.541Z,4.20
2018-08-12T18:42:23.550Z,4.13
2018-08-12T18:44:52.188Z,2.30
2018-08-12T18:47:21.671Z,2.33
2018-08-12T18:49:50.816Z,2.43
2018-08-12T18:52:20.220Z,2.20
2018-08-12T18:54:49.107Z,2.00
2018-08-12T18:57:18.274Z,3.63
2018-08-12T18:59:47.114Z,2.37
2018-08-12T19:02:16.803Z,2.83
2018-08-12T19:04:46.804Z,5.83
2018-08-12T19:07:16.403Z,3.40
2018-08-12T19:09:45.329Z,2.40
2018-08-12T19:12:14.478Z,1.50
2018-08-12T19:14:43.319Z,1.80
2018-08-12T19:17:12.176Z,1.90
2018-08-12T19:19:41.109Z,3.00
2018-08-12T19:22:10.287Z,1.60
2018-08-12T19:24:39.448Z,3.37
2018-08-12T19:27:08.701Z,5.93
2018-08-12T19:29:37.821Z,5.77
2018-08-12T19:32:06.780Z,2.33
2018-08-12T19:34:35.942Z,3.10
2018-08-12T19:37:05.398Z,6.47
2018-08-12T19:39:34.344Z,2.13
2018-08-12T19:42:03.400Z,3.00
2018-08-12T19:44:32.612Z,3.13
2018-08-12T19:47:01.925Z,6.80
2018-08-12T19:49:30.923Z,5.47
2018-08-12T19:51:59.904Z,4.40
2018-08-12T19:54:29.180Z,3.37
2018-08-12T19:56:58.230Z,2.10
2018-08-12T19:59:27.750Z,7.00
2018-08-12T20:01:56.816Z,8.20
2018-08-12T20:04:26.369Z,6.07
2018-08-12T20:06:57.063Z,2.17
2018-08-12T20:09:27.229Z,5.80
2018-08-12T20:11:56.328Z,6.17
2018-08-12T20:14:25.309Z,7.63
2018-08-12T20:16:55.033Z,6.30
2018-08-12T20:19:23.926Z,2.37
2018-08-12T20:21:53.288Z,6.53
2018-08-12T20:24:22.371Z,12.03
2018-08-12T20:26:51.509Z,2.80
2018-08-12T20:29:20.338Z,2.73
2018-08-12T20:31:49.336Z,5.23
2018-08-12T20:34:18.553Z,3.50
2018-08-12T20:36:47.808Z,2.50
2018-08-12T20:39:17.155Z,2.50
2018-08-12T20:41:46.541Z,4.47
2018-08-12T20:44:15.513Z,3.37
2018-08-12T20:46:44.271Z,3.83
2018-08-12T20:49:13.177Z,2.40
2018-08-12T20:51:42.064Z,4.60
2018-08-12T20:54:11.657Z,7.70
2018-08-12T20:56:40.654Z,8.10
2018-08-12T20:59:10.064Z,4.30
2018-08-12T21:01:39.830Z,5.70
2018-08-12T21:04:08.939Z,3.73
2018-08-12T21:06:37.823Z,9.03
2018-08-12T21:09:09.010Z,5.90
2018-08-12T21:11:38.055Z,3.00
2018-08-12T21:14:08.085Z,3.80
2018-08-12T21:16:37.112Z,3.07
2018-08-12T21:19:06.177Z,3.80
2018-08-12T21:21:35.482Z,4.30
2018-08-12T21:24:04.705Z,3.30
2018-08-12T21:26:34.716Z,3.47
2018-08-12T21:29:03.868Z,8.30
2018-08-12T21:31:33.031Z,9.60
2018-08-12T21:34:02.326Z,13.53
2018-08-12T21:36:31.727Z,3.20
2018-08-12T21:39:01.130Z,4.83
2018-08-12T21:41:30.700Z,21.80
2018-08-12T21:44:00.302Z,5.23
2018-08-12T21:46:29.999Z,3.20
2018-08-12T21:48:59.234Z,2.80
2018-08-12T21:51:29.095Z,2.97
2018-08-12T21:53:58.632Z,3.20
2018-08-12T21:56:28.156Z,3.00
2018-08-12T21:58:58.646Z,3.27
2018-08-12T22:01:27.589Z,2.83
2018-08-12T22:03:57.185Z,3.20
2018-08-12T22:06:26.323Z,2.70
2018-08-12T22:08:55.750Z,4.70
2018-08-12T22:11:24.718Z,3.40
2018-08-12T22:13:53.903Z,2.63
2018-08-12T22:16:23.593Z,7.53
2018-08-12T22:18:53.416Z,4.13
2018-08-12T22:21:22.411Z,4.60
2018-08-12T22:23:51.374Z,3.23
2018-08-12T22:26:20.435Z,5.23
2018-08-12T22:28:49.879Z,4.73
2018-08-12T22:31:18.554Z,5.30
2018-08-12T22:33:47.707Z,4.60
2018-08-12T22:36:16.919Z,2.30
2018-08-12T22:38:46.721Z,3.20
2018-08-12T22:41:17.160Z,4.33
2018-08-12T22:43:46.016Z,3.37
2018-08-12T22:46:14.976Z,3.60
2018-08-12T22:48:43.663Z,7.73
2018-08-12T22:51:12.563Z,3.30
2018-08-12T22:53:41.398Z,3.23
2018-08-12T22:56:10.439Z,3.00
2018-08-12T22:58:39.465Z,2.60
2018-08-12T23:01:09.422Z,5.23
2018-08-12T23:03:38.916Z,7.67
2018-08-12T23:06:07.734Z,2.77
2018-08-12T23:08:36.646Z,2.90
2018-08-12T23:11:05.785Z,7.10
2018-08-12T23:13:34.639Z,3.47
2018-08-12T23:16:15.957Z,6.10
2018-08-12T23:18:45.127Z,2.53
2018-08-12T23:21:17.248Z,3.67
2018-08-12T23:23:47.167Z,6.37
2018-08-12T23:26:17.526Z,3.70
2018-08-12T23:28:46.670Z,3.27
2018-08-12T23:31:15.686Z,4.20
2018-08-12T23:33:44.595Z,3.30
2018-08-12T23:36:13.836Z,6.57
2018-08-12T23:38:42.901Z,3.77
2018-08-12T23:41:12.537Z,2.30
2018-08-12T23:43:42.195Z,3.50
2018-08-12T23:46:11.859Z,2.50
2018-08-12T23:48:40.683Z,5.70
2018-08-12T23:51:10.190Z,3.37
2018-08-12T23:53:39.281Z,2.50
2018-08-12T23:56:08.377Z,2.70
2018-08-12T23:58:37.838Z,4.93
